sensor_id;sensor_type;location;lat;lon;timestamp;temperature;humidity
58865;DHT22;45702;52.982;6.658;2023-07-09T00:01:17;21.80;86.80
58865;DHT22;45702;52.982;6.658;2023-07-09T00:03:44;21.80;86.70
58865;DHT22;45702;52.982;6.658;2023-07-09T00:06:12;21.70;86.70
58865;DHT22;45702;52.982;6.658;2023-07-09T00:08:42;21.70;87.20
58865;DHT22;45702;52.982;6.658;2023-07-09T00:11:09;21.70;87.60
58865;DHT22;45702;52.982;6.658;2023-07-09T00:13:35;21.60;87.70
58865;DHT22;45702;52.982;6.658;2023-07-09T00:16:03;21.60;87.50
58865;DHT22;45702;52.982;6.658;2023-07-09T00:18:33;21.60;87.90
58865;DHT22;45702;52.982;6.658;2023-07-09T00:21:00;21.60;88.00
58865;DHT22;45702;52.982;6.658;2023-07-09T00:23:27;21.60;88.10
58865;DHT22;45702;52.982;6.658;2023-07-09T00:25:53;21.60;88.20
58865;DHT22;45702;52.982;6.658;2023-07-09T00:28:19;21.60;88.60
58865;DHT22;45702;52.982;6.658;2023-07-09T00:30:46;21.50;89.10
58865;DHT22;45702;52.982;6.658;2023-07-09T00:33:13;21.60;89.30
58865;DHT22;45702;52.982;6.658;2023-07-09T00:35:47;21.50;88.80
58865;DHT22;45702;52.982;6.658;2023-07-09T00:38:21;21.50;88.90
58865;DHT22;45702;52.982;6.658;2023-07-09T00:41:12;21.50;88.80
58865;DHT22;45702;52.982;6.658;2023-07-09T00:43:44;21.50;88.80
58865;DHT22;45702;52.982;6.658;2023-07-09T00:47:21;21.50;89.30
58865;DHT22;45702;52.982;6.658;2023-07-09T00:49:07;21.50;89.70
58865;DHT22;45702;52.982;6.658;2023-07-09T00:51:38;21.50;89.30
58865;DHT22;45702;52.982;6.658;2023-07-09T00:54:44;21.50;89.80
58865;DHT22;45702;52.982;6.658;2023-07-09T00:57:16;21.40;89.30
58865;DHT22;45702;52.982;6.658;2023-07-09T00:59:51;21.50;88.30
58865;DHT22;45702;52.982;6.658;2023-07-09T01:02:19;21.50;87.20
58865;DHT22;45702;52.982;6.658;2023-07-09T01:04:55;21.50;87.10
58865;DHT22;45702;52.982;6.658;2023-07-09T01:07:27;21.50;86.70
58865;DHT22;45702;52.982;6.658;2023-07-09T01:09:53;21.50;86.90
58865;DHT22;45702;52.982;6.658;2023-07-09T01:12:20;21.50;87.30
58865;DHT22;45702;52.982;6.658;2023-07-09T01:14:48;21.50;87.90
58865;DHT22;45702;52.982;6.658;2023-07-09T01:17:17;21.50;88.00
58865;DHT22;45702;52.982;6.658;2023-07-09T01:19:48;21.50;87.80
58865;DHT22;45702;52.982;6.658;2023-07-09T01:22:16;21.50;88.10
58865;DHT22;45702;52.982;6.658;2023-07-09T01:25:00;21.50;87.90
58865;DHT22;45702;52.982;6.658;2023-07-09T01:27:39;21.50;87.50
58865;DHT22;45702;52.982;6.658;2023-07-09T01:30:15;21.40;87.30
58865;DHT22;45702;52.982;6.658;2023-07-09T01:32:41;21.40;88.20
58865;DHT22;45702;52.982;6.658;2023-07-09T01:35:14;21.40;88.60
58865;DHT22;45702;52.982;6.658;2023-07-09T01:37:41;21.40;88.20
58865;DHT22;45702;52.982;6.658;2023-07-09T01:40:08;21.30;88.00
58865;DHT22;45702;52.982;6.658;2023-07-09T01:42:35;21.30;88.30
58865;DHT22;45702;52.982;6.658;2023-07-09T01:45:04;21.30;88.90
58865;DHT22;45702;52.982;6.658;2023-07-09T01:47:30;21.20;89.40
58865;DHT22;45702;52.982;6.658;2023-07-09T01:49:55;21.20;88.90
58865;DHT22;45702;52.982;6.658;2023-07-09T01:52:24;21.20;88.50
58865;DHT22;45702;52.982;6.658;2023-07-09T01:54:52;21.20;88.20
58865;DHT22;45702;52.982;6.658;2023-07-09T01:57:23;21.10;87.90
58865;DHT22;45702;52.982;6.658;2023-07-09T01:59:50;21.10;88.10
58865;DHT22;45702;52.982;6.658;2023-07-09T02:02:17;21.10;88.20
58865;DHT22;45702;52.982;6.658;2023-07-09T02:04:51;21.10;88.20
58865;DHT22;45702;52.982;6.658;2023-07-09T02:07:18;21.10;88.20
58865;DHT22;45702;52.982;6.658;2023-07-09T02:09:44;21.10;88.80
58865;DHT22;45702;52.982;6.658;2023-07-09T02:12:11;21.10;88.80
58865;DHT22;45702;52.982;6.658;2023-07-09T02:14:39;21.00;88.70
58865;DHT22;45702;52.982;6.658;2023-07-09T02:17:05;21.00;88.90
58865;DHT22;45702;52.982;6.658;2023-07-09T02:19:31;21.00;89.00
58865;DHT22;45702;52.982;6.658;2023-07-09T02:21:57;21.00;89.20
58865;DHT22;45702;52.982;6.658;2023-07-09T02:24:23;20.90;89.70
58865;DHT22;45702;52.982;6.658;2023-07-09T02:26:57;20.90;90.10
58865;DHT22;45702;52.982;6.658;2023-07-09T02:29:24;20.90;90.10
58865;DHT22;45702;52.982;6.658;2023-07-09T02:31:51;20.80;90.40
58865;DHT22;45702;52.982;6.658;2023-07-09T02:34:18;20.80;90.50
58865;DHT22;45702;52.982;6.658;2023-07-09T02:36:44;20.80;90.40
58865;DHT22;45702;52.982;6.658;2023-07-09T02:39:11;20.70;90.20
58865;DHT22;45702;52.982;6.658;2023-07-09T02:41:39;20.80;90.20
58865;DHT22;45702;52.982;6.658;2023-07-09T02:44:05;20.80;90.10
58865;DHT22;45702;52.982;6.658;2023-07-09T02:46:31;20.70;90.00
58865;DHT22;45702;52.982;6.658;2023-07-09T02:48:56;20.70;90.20
58865;DHT22;45702;52.982;6.658;2023-07-09T02:51:23;20.70;90.40
58865;DHT22;45702;52.982;6.658;2023-07-09T02:53:55;20.60;90.50
58865;DHT22;45702;52.982;6.658;2023-07-09T02:56:21;20.60;90.70
58865;DHT22;45702;52.982;6.658;2023-07-09T02:58:47;20.50;90.90
58865;DHT22;45702;52.982;6.658;2023-07-09T03:01:13;20.50;91.10
58865;DHT22;45702;52.982;6.658;2023-07-09T03:03:39;20.40;91.30
58865;DHT22;45702;52.982;6.658;2023-07-09T03:06:08;20.30;91.60
58865;DHT22;45702;52.982;6.658;2023-07-09T03:08:34;20.30;92.00
58865;DHT22;45702;52.982;6.658;2023-07-09T03:11:11;20.20;92.20
58865;DHT22;45702;52.982;6.658;2023-07-09T03:13:37;20.10;92.30
58865;DHT22;45702;52.982;6.658;2023-07-09T03:16:03;20.10;92.80
58865;DHT22;45702;52.982;6.658;2023-07-09T03:18:28;20.00;93.10
58865;DHT22;45702;52.982;6.658;2023-07-09T03:20:54;20.00;93.60
58865;DHT22;45702;52.982;6.658;2023-07-09T03:23:20;19.90;94.00
58865;DHT22;45702;52.982;6.658;2023-07-09T03:25:46;19.90;94.20
58865;DHT22;45702;52.982;6.658;2023-07-09T03:28:12;19.80;94.50
58865;DHT22;45702;52.982;6.658;2023-07-09T03:30:42;19.70;94.80
58865;DHT22;45702;52.982;6.658;2023-07-09T03:33:08;19.70;94.90
58865;DHT22;45702;52.982;6.658;2023-07-09T03:35:34;19.60;95.10
58865;DHT22;45702;52.982;6.658;2023-07-09T03:38:01;19.60;95.20
58865;DHT22;45702;52.982;6.658;2023-07-09T03:40:27;19.60;95.40
58865;DHT22;45702;52.982;6.658;2023-07-09T03:42:53;19.50;95.70
58865;DHT22;45702;52.982;6.658;2023-07-09T03:45:19;19.50;96.00
58865;DHT22;45702;52.982;6.658;2023-07-09T03:47:44;19.40;96.50
58865;DHT22;45702;52.982;6.658;2023-07-09T03:50:10;19.40;96.50
58865;DHT22;45702;52.982;6.658;2023-07-09T03:52:37;19.40;96.70
58865;DHT22;45702;52.982;6.658;2023-07-09T03:55:03;19.40;96.70
58865;DHT22;45702;52.982;6.658;2023-07-09T03:57:30;19.40;96.70
58865;DHT22;45702;52.982;6.658;2023-07-09T03:59:56;19.40;96.70
58865;DHT22;45702;52.982;6.658;2023-07-09T04:02:22;19.40;96.60
58865;DHT22;45702;52.982;6.658;2023-07-09T04:04:48;19.40;96.70
58865;DHT22;45702;52.982;6.658;2023-07-09T04:07:15;19.40;96.60
58865;DHT22;45702;52.982;6.658;2023-07-09T04:09:41;19.50;96.50
58865;DHT22;45702;52.982;6.658;2023-07-09T04:12:08;19.50;96.30
58865;DHT22;45702;52.982;6.658;2023-07-09T04:14:34;19.50;96.10
58865;DHT22;45702;52.982;6.658;2023-07-09T04:16:59;19.50;96.00
58865;DHT22;45702;52.982;6.658;2023-07-09T04:19:25;19.60;95.90
58865;DHT22;45702;52.982;6.658;2023-07-09T04:21:51;19.60;95.70
58865;DHT22;45702;52.982;6.658;2023-07-09T04:24:18;19.60;95.60
58865;DHT22;45702;52.982;6.658;2023-07-09T04:26:45;19.70;95.50
58865;DHT22;45702;52.982;6.658;2023-07-09T04:29:11;19.70;95.50
58865;DHT22;45702;52.982;6.658;2023-07-09T04:31:37;19.80;95.30
58865;DHT22;45702;52.982;6.658;2023-07-09T04:34:04;19.90;95.00
58865;DHT22;45702;52.982;6.658;2023-07-09T04:36:30;19.90;94.70
58865;DHT22;45702;52.982;6.658;2023-07-09T04:38:56;20.00;94.40
58865;DHT22;45702;52.982;6.658;2023-07-09T04:41:22;20.10;94.20
58865;DHT22;45702;52.982;6.658;2023-07-09T04:43:48;20.20;94.00
58865;DHT22;45702;52.982;6.658;2023-07-09T04:46:13;20.30;93.90
58865;DHT22;45702;52.982;6.658;2023-07-09T04:48:39;20.40;93.90
58865;DHT22;45702;52.982;6.658;2023-07-09T04:51:05;20.40;94.30
58865;DHT22;45702;52.982;6.658;2023-07-09T04:53:30;20.50;94.00
58865;DHT22;45702;52.982;6.658;2023-07-09T04:55:56;20.60;93.80
58865;DHT22;45702;52.982;6.658;2023-07-09T04:58:22;20.60;93.40
58865;DHT22;45702;52.982;6.658;2023-07-09T05:00:48;20.70;93.20
58865;DHT22;45702;52.982;6.658;2023-07-09T05:03:15;20.70;93.30
58865;DHT22;45702;52.982;6.658;2023-07-09T05:05:43;20.80;93.40
58865;DHT22;45702;52.982;6.658;2023-07-09T05:08:08;20.90;93.30
58865;DHT22;45702;52.982;6.658;2023-07-09T05:10:34;21.00;93.40
58865;DHT22;45702;52.982;6.658;2023-07-09T05:13:05;21.00;93.50
58865;DHT22;45702;52.982;6.658;2023-07-09T05:15:31;21.10;93.60
58865;DHT22;45702;52.982;6.658;2023-07-09T05:17:57;21.20;93.60
58865;DHT22;45702;52.982;6.658;2023-07-09T05:20:22;21.30;93.60
58865;DHT22;45702;52.982;6.658;2023-07-09T05:22:48;21.40;93.60
58865;DHT22;45702;52.982;6.658;2023-07-09T05:25:14;21.40;93.50
58865;DHT22;45702;52.982;6.658;2023-07-09T05:27:39;21.50;93.40
58865;DHT22;45702;52.982;6.658;2023-07-09T05:30:06;21.60;93.30
58865;DHT22;45702;52.982;6.658;2023-07-09T05:32:31;21.70;93.00
58865;DHT22;45702;52.982;6.658;2023-07-09T05:34:57;21.70;92.80
58865;DHT22;45702;52.982;6.658;2023-07-09T05:37:23;21.80;92.70
58865;DHT22;45702;52.982;6.658;2023-07-09T05:39:49;21.90;92.60
58865;DHT22;45702;52.982;6.658;2023-07-09T05:42:14;21.90;92.40
58865;DHT22;45702;52.982;6.658;2023-07-09T05:44:40;22.00;92.40
58865;DHT22;45702;52.982;6.658;2023-07-09T05:47:06;22.00;92.70
58865;DHT22;45702;52.982;6.658;2023-07-09T05:49:32;22.10;92.80
58865;DHT22;45702;52.982;6.658;2023-07-09T05:51:57;22.10;92.40
58865;DHT22;45702;52.982;6.658;2023-07-09T05:54:23;22.10;92.50
58865;DHT22;45702;52.982;6.658;2023-07-09T05:56:49;22.20;92.60
58865;DHT22;45702;52.982;6.658;2023-07-09T05:59:15;22.20;92.60
58865;DHT22;45702;52.982;6.658;2023-07-09T06:01:40;22.20;92.70
58865;DHT22;45702;52.982;6.658;2023-07-09T06:04:06;22.20;92.80
58865;DHT22;45702;52.982;6.658;2023-07-09T06:06:32;22.30;93.00
58865;DHT22;45702;52.982;6.658;2023-07-09T06:08:57;22.30;93.10
58865;DHT22;45702;52.982;6.658;2023-07-09T06:11:23;22.40;93.20
58865;DHT22;45702;52.982;6.658;2023-07-09T06:13:49;22.40;93.30
58865;DHT22;45702;52.982;6.658;2023-07-09T06:16:15;22.50;93.50
58865;DHT22;45702;52.982;6.658;2023-07-09T06:18:41;22.50;93.80
58865;DHT22;45702;52.982;6.658;2023-07-09T06:21:07;22.50;94.20
58865;DHT22;45702;52.982;6.658;2023-07-09T06:23:34;22.60;94.40
58865;DHT22;45702;52.982;6.658;2023-07-09T06:26:00;22.60;94.50
58865;DHT22;45702;52.982;6.658;2023-07-09T06:28:27;22.70;94.20
58865;DHT22;45702;52.982;6.658;2023-07-09T06:30:55;22.80;94.20
58865;DHT22;45702;52.982;6.658;2023-07-09T06:33:21;22.80;93.80
58865;DHT22;45702;52.982;6.658;2023-07-09T06:35:51;22.90;93.50
58865;DHT22;45702;52.982;6.658;2023-07-09T06:38:17;23.00;93.20
58865;DHT22;45702;52.982;6.658;2023-07-09T06:40:44;23.10;93.30
58865;DHT22;45702;52.982;6.658;2023-07-09T06:43:10;23.10;93.00
58865;DHT22;45702;52.982;6.658;2023-07-09T06:45:36;23.30;92.80
58865;DHT22;45702;52.982;6.658;2023-07-09T06:48:03;23.30;92.90
58865;DHT22;45702;52.982;6.658;2023-07-09T06:50:29;23.40;92.90
58865;DHT22;45702;52.982;6.658;2023-07-09T06:52:58;23.50;92.20
58865;DHT22;45702;52.982;6.658;2023-07-09T06:55:23;23.60;91.90
58865;DHT22;45702;52.982;6.658;2023-07-09T06:57:49;23.60;91.60
58865;DHT22;45702;52.982;6.658;2023-07-09T07:00:15;23.70;91.90
58865;DHT22;45702;52.982;6.658;2023-07-09T07:02:41;23.80;92.00
58865;DHT22;45702;52.982;6.658;2023-07-09T07:05:06;23.90;92.20
58865;DHT22;45702;52.982;6.658;2023-07-09T07:07:32;23.90;92.30
58865;DHT22;45702;52.982;6.658;2023-07-09T07:09:58;23.90;92.40
58865;DHT22;45702;52.982;6.658;2023-07-09T07:12:29;24.00;92.40
58865;DHT22;45702;52.982;6.658;2023-07-09T07:14:55;24.10;92.40
58865;DHT22;45702;52.982;6.658;2023-07-09T07:17:22;24.10;92.40
58865;DHT22;45702;52.982;6.658;2023-07-09T07:19:49;24.30;92.40
58865;DHT22;45702;52.982;6.658;2023-07-09T07:22:15;24.30;92.20
58865;DHT22;45702;52.982;6.658;2023-07-09T07:24:41;24.40;92.10
58865;DHT22;45702;52.982;6.658;2023-07-09T07:27:08;24.50;92.00
58865;DHT22;45702;52.982;6.658;2023-07-09T07:29:33;24.60;91.80
58865;DHT22;45702;52.982;6.658;2023-07-09T07:31:59;24.70;91.60
58865;DHT22;45702;52.982;6.658;2023-07-09T07:34:26;24.80;91.20
58865;DHT22;45702;52.982;6.658;2023-07-09T07:36:52;24.90;90.60
58865;DHT22;45702;52.982;6.658;2023-07-09T07:39:17;25.00;90.50
58865;DHT22;45702;52.982;6.658;2023-07-09T07:41:43;25.00;90.40
58865;DHT22;45702;52.982;6.658;2023-07-09T07:44:09;25.10;90.60
58865;DHT22;45702;52.982;6.658;2023-07-09T07:46:35;25.20;90.60
58865;DHT22;45702;52.982;6.658;2023-07-09T07:49:00;25.30;90.80
58865;DHT22;45702;52.982;6.658;2023-07-09T07:51:26;25.40;90.60
58865;DHT22;45702;52.982;6.658;2023-07-09T07:53:53;25.40;89.70
58865;DHT22;45702;52.982;6.658;2023-07-09T07:56:19;25.50;87.90
58865;DHT22;45702;52.982;6.658;2023-07-09T07:58:44;25.70;87.60
58865;DHT22;45702;52.982;6.658;2023-07-09T08:01:10;25.70;87.60
58865;DHT22;45702;52.982;6.658;2023-07-09T08:03:36;25.80;88.10
58865;DHT22;45702;52.982;6.658;2023-07-09T08:06:02;25.90;88.50
58865;DHT22;45702;52.982;6.658;2023-07-09T08:08:27;26.00;87.50
58865;DHT22;45702;52.982;6.658;2023-07-09T08:11:01;26.10;87.10
58865;DHT22;45702;52.982;6.658;2023-07-09T08:13:27;26.20;88.20
58865;DHT22;45702;52.982;6.658;2023-07-09T08:15:52;26.30;88.00
58865;DHT22;45702;52.982;6.658;2023-07-09T08:18:18;26.40;88.10
58865;DHT22;45702;52.982;6.658;2023-07-09T08:20:44;26.50;87.10
58865;DHT22;45702;52.982;6.658;2023-07-09T08:23:10;26.70;85.10
58865;DHT22;45702;52.982;6.658;2023-07-09T08:25:36;26.70;83.50
58865;DHT22;45702;52.982;6.658;2023-07-09T08:28:02;26.90;82.20
58865;DHT22;45702;52.982;6.658;2023-07-09T08:30:27;27.00;81.90
58865;DHT22;45702;52.982;6.658;2023-07-09T08:32:53;27.10;81.70
58865;DHT22;45702;52.982;6.658;2023-07-09T08:35:20;27.10;82.70
58865;DHT22;45702;52.982;6.658;2023-07-09T08:37:46;27.30;80.80
58865;DHT22;45702;52.982;6.658;2023-07-09T08:40:14;27.20;80.30
58865;DHT22;45702;52.982;6.658;2023-07-09T08:42:46;27.30;79.70
58865;DHT22;45702;52.982;6.658;2023-07-09T08:48:02;27.60;77.30
58865;DHT22;45702;52.982;6.658;2023-07-09T08:50:50;27.70;76.80
58865;DHT22;45702;52.982;6.658;2023-07-09T08:53:49;27.80;75.80
58865;DHT22;45702;52.982;6.658;2023-07-09T08:56:16;27.80;76.60
58865;DHT22;45702;52.982;6.658;2023-07-09T08:58:43;27.90;75.40
58865;DHT22;45702;52.982;6.658;2023-07-09T09:01:20;28.00;75.40
58865;DHT22;45702;52.982;6.658;2023-07-09T09:03:50;28.10;74.40
58865;DHT22;45702;52.982;6.658;2023-07-09T09:06:20;28.10;74.10
58865;DHT22;45702;52.982;6.658;2023-07-09T09:11:25;28.30;74.60
58865;DHT22;45702;52.982;6.658;2023-07-09T09:13:58;28.40;73.40
58865;DHT22;45702;52.982;6.658;2023-07-09T09:16:36;28.50;74.30
58865;DHT22;45702;52.982;6.658;2023-07-09T09:19:12;28.60;73.70
58865;DHT22;45702;52.982;6.658;2023-07-09T09:21:41;28.70;72.00
58865;DHT22;45702;52.982;6.658;2023-07-09T09:24:23;28.80;71.50
58865;DHT22;45702;52.982;6.658;2023-07-09T09:26:53;28.90;70.60
58865;DHT22;45702;52.982;6.658;2023-07-09T09:29:23;28.90;70.90
58865;DHT22;45702;52.982;6.658;2023-07-09T09:31:53;29.00;72.20
58865;DHT22;45702;52.982;6.658;2023-07-09T09:34:27;29.20;71.30
58865;DHT22;45702;52.982;6.658;2023-07-09T09:36:55;29.30;70.50
58865;DHT22;45702;52.982;6.658;2023-07-09T09:39:22;29.40;69.70
58865;DHT22;45702;52.982;6.658;2023-07-09T09:41:48;29.50;69.70
58865;DHT22;45702;52.982;6.658;2023-07-09T09:44:28;29.70;68.70
58865;DHT22;45702;52.982;6.658;2023-07-09T09:46:58;29.90;67.80
58865;DHT22;45702;52.982;6.658;2023-07-09T09:49:23;30.00;66.90
58865;DHT22;45702;52.982;6.658;2023-07-09T09:51:49;30.10;64.70
58865;DHT22;45702;52.982;6.658;2023-07-09T09:54:21;30.20;65.30
58865;DHT22;45702;52.982;6.658;2023-07-09T09:56:49;30.30;64.70
58865;DHT22;45702;52.982;6.658;2023-07-09T09:59:29;30.30;63.60
58865;DHT22;45702;52.982;6.658;2023-07-09T10:02:12;30.40;63.60
58865;DHT22;45702;52.982;6.658;2023-07-09T10:04:39;30.50;63.50
58865;DHT22;45702;52.982;6.658;2023-07-09T10:07:07;30.50;63.50
58865;DHT22;45702;52.982;6.658;2023-07-09T10:12:36;30.50;62.20
58865;DHT22;45702;52.982;6.658;2023-07-09T10:20:37;30.50;61.90
58865;DHT22;45702;52.982;6.658;2023-07-09T10:23:13;30.50;60.10
58865;DHT22;45702;52.982;6.658;2023-07-09T10:33:53;30.70;58.90
58865;DHT22;45702;52.982;6.658;2023-07-09T10:39:00;30.80;57.80
58865;DHT22;45702;52.982;6.658;2023-07-09T10:41:28;30.80;57.70
58865;DHT22;45702;52.982;6.658;2023-07-09T10:46:39;30.80;57.10
58865;DHT22;45702;52.982;6.658;2023-07-09T10:49:10;30.80;57.20
58865;DHT22;45702;52.982;6.658;2023-07-09T10:51:38;30.80;56.80
58865;DHT22;45702;52.982;6.658;2023-07-09T10:56:34;30.90;57.30
58865;DHT22;45702;52.982;6.658;2023-07-09T11:01:55;31.00;57.00
58865;DHT22;45702;52.982;6.658;2023-07-09T11:07:29;31.30;57.50
58865;DHT22;45702;52.982;6.658;2023-07-09T11:09:58;31.30;56.80
58865;DHT22;45702;52.982;6.658;2023-07-09T11:12:39;31.30;56.50
58865;DHT22;45702;52.982;6.658;2023-07-09T11:15:16;31.50;56.70
58865;DHT22;45702;52.982;6.658;2023-07-09T11:17:45;31.50;55.90
58865;DHT22;45702;52.982;6.658;2023-07-09T11:20:31;31.50;55.70
58865;DHT22;45702;52.982;6.658;2023-07-09T11:23:17;31.50;56.80
58865;DHT22;45702;52.982;6.658;2023-07-09T11:25:49;31.70;57.50
58865;DHT22;45702;52.982;6.658;2023-07-09T11:28:37;31.80;57.00
58865;DHT22;45702;52.982;6.658;2023-07-09T11:31:20;31.90;57.30
58865;DHT22;45702;52.982;6.658;2023-07-09T11:33:48;32.00;56.90
58865;DHT22;45702;52.982;6.658;2023-07-09T11:36:25;32.10;56.30
58865;DHT22;45702;52.982;6.658;2023-07-09T11:38:52;32.20;56.50
58865;DHT22;45702;52.982;6.658;2023-07-09T11:41:43;32.30;55.80
58865;DHT22;45702;52.982;6.658;2023-07-09T11:44:26;32.40;55.60
58865;DHT22;45702;52.982;6.658;2023-07-09T11:52:37;32.60;52.60
58865;DHT22;45702;52.982;6.658;2023-07-09T11:58:04;32.80;52.00
58865;DHT22;45702;52.982;6.658;2023-07-09T12:00:53;32.80;51.60
58865;DHT22;45702;52.982;6.658;2023-07-09T12:03:23;32.80;51.00
58865;DHT22;45702;52.982;6.658;2023-07-09T12:05:55;32.90;51.10
58865;DHT22;45702;52.982;6.658;2023-07-09T12:08:27;33.00;51.50
58865;DHT22;45702;52.982;6.658;2023-07-09T12:10:54;33.10;52.10
58865;DHT22;45702;52.982;6.658;2023-07-09T12:13:20;33.20;52.00
58865;DHT22;45702;52.982;6.658;2023-07-09T12:15:46;33.30;51.30
58865;DHT22;45702;52.982;6.658;2023-07-09T12:18:14;33.40;51.40
58865;DHT22;45702;52.982;6.658;2023-07-09T12:20:45;33.50;50.90
58865;DHT22;45702;52.982;6.658;2023-07-09T12:23:32;33.60;50.10
58865;DHT22;45702;52.982;6.658;2023-07-09T12:26:02;33.70;50.40
58865;DHT22;45702;52.982;6.658;2023-07-09T12:28:29;33.80;49.90
58865;DHT22;45702;52.982;6.658;2023-07-09T12:30:55;33.80;48.30
58865;DHT22;45702;52.982;6.658;2023-07-09T12:33:26;33.80;48.50
58865;DHT22;45702;52.982;6.658;2023-07-09T12:36:01;33.80;49.70
58865;DHT22;45702;52.982;6.658;2023-07-09T12:38:32;33.80;49.20
58865;DHT22;45702;52.982;6.658;2023-07-09T12:41:04;33.80;48.70
58865;DHT22;45702;52.982;6.658;2023-07-09T12:43:31;33.80;48.00
58865;DHT22;45702;52.982;6.658;2023-07-09T12:45:59;33.90;48.40
58865;DHT22;45702;52.982;6.658;2023-07-09T12:48:27;33.90;48.20
58865;DHT22;45702;52.982;6.658;2023-07-09T12:50:58;34.00;48.20
58865;DHT22;45702;52.982;6.658;2023-07-09T12:53:27;34.00;48.00
58865;DHT22;45702;52.982;6.658;2023-07-09T12:55:58;34.10;47.70
58865;DHT22;45702;52.982;6.658;2023-07-09T12:58:30;34.10;47.70
58865;DHT22;45702;52.982;6.658;2023-07-09T13:00:57;34.10;48.20
58865;DHT22;45702;52.982;6.658;2023-07-09T13:03:31;34.20;47.00
58865;DHT22;45702;52.982;6.658;2023-07-09T13:06:00;34.20;46.40
58865;DHT22;45702;52.982;6.658;2023-07-09T13:08:28;34.10;45.90
58865;DHT22;45702;52.982;6.658;2023-07-09T13:10:54;34.10;46.00
58865;DHT22;45702;52.982;6.658;2023-07-09T13:13:22;34.10;46.10
58865;DHT22;45702;52.982;6.658;2023-07-09T13:15:51;34.10;46.20
58865;DHT22;45702;52.982;6.658;2023-07-09T13:18:23;34.10;47.00
58865;DHT22;45702;52.982;6.658;2023-07-09T13:20:49;34.10;46.70
58865;DHT22;45702;52.982;6.658;2023-07-09T13:23:21;34.00;46.40
58865;DHT22;45702;52.982;6.658;2023-07-09T13:25:48;33.80;46.80
58865;DHT22;45702;52.982;6.658;2023-07-09T13:28:18;33.60;47.40
58865;DHT22;45702;52.982;6.658;2023-07-09T13:30:45;33.50;47.80
58865;DHT22;45702;52.982;6.658;2023-07-09T13:33:11;33.30;48.50
58865;DHT22;45702;52.982;6.658;2023-07-09T13:35:37;33.30;49.30
58865;DHT22;45702;52.982;6.658;2023-07-09T13:38:08;33.10;49.40
58865;DHT22;45702;52.982;6.658;2023-07-09T13:40:37;32.90;50.10
58865;DHT22;45702;52.982;6.658;2023-07-09T13:43:04;32.80;50.70
58865;DHT22;45702;52.982;6.658;2023-07-09T13:45:32;32.80;51.60
58865;DHT22;45702;52.982;6.658;2023-07-09T13:47:58;32.60;51.30
58865;DHT22;45702;52.982;6.658;2023-07-09T13:50:24;32.60;51.80
58865;DHT22;45702;52.982;6.658;2023-07-09T13:52:50;32.50;52.80
58865;DHT22;45702;52.982;6.658;2023-07-09T13:55:19;32.40;52.20
58865;DHT22;45702;52.982;6.658;2023-07-09T13:57:46;32.60;51.90
58865;DHT22;45702;52.982;6.658;2023-07-09T14:00:13;32.90;52.10
58865;DHT22;45702;52.982;6.658;2023-07-09T14:02:39;33.30;51.10
58865;DHT22;45702;52.982;6.658;2023-07-09T14:05:07;33.80;49.90
58865;DHT22;45702;52.982;6.658;2023-07-09T14:07:36;34.10;48.80
58865;DHT22;45702;52.982;6.658;2023-07-09T14:10:05;34.40;48.60
58865;DHT22;45702;52.982;6.658;2023-07-09T14:12:31;34.50;47.40
58865;DHT22;45702;52.982;6.658;2023-07-09T14:14:59;34.50;47.60
58865;DHT22;45702;52.982;6.658;2023-07-09T14:17:26;34.40;47.10
58865;DHT22;45702;52.982;6.658;2023-07-09T14:19:52;34.30;47.30
58865;DHT22;45702;52.982;6.658;2023-07-09T14:22:24;34.20;48.00
58865;DHT22;45702;52.982;6.658;2023-07-09T14:24:52;34.10;47.70
58865;DHT22;45702;52.982;6.658;2023-07-09T14:27:18;34.00;48.60
58865;DHT22;45702;52.982;6.658;2023-07-09T14:29:44;33.90;47.90
58865;DHT22;45702;52.982;6.658;2023-07-09T14:35:01;33.50;48.30
58865;DHT22;45702;52.982;6.658;2023-07-09T14:37:27;33.30;49.30
58865;DHT22;45702;52.982;6.658;2023-07-09T14:39:53;33.10;49.80
58865;DHT22;45702;52.982;6.658;2023-07-09T14:42:18;33.00;50.30
58865;DHT22;45702;52.982;6.658;2023-07-09T14:44:44;32.80;50.40
58865;DHT22;45702;52.982;6.658;2023-07-09T14:47:19;32.60;50.80
58865;DHT22;45702;52.982;6.658;2023-07-09T14:49:45;32.40;50.90
58865;DHT22;45702;52.982;6.658;2023-07-09T14:52:16;32.20;51.50
58865;DHT22;45702;52.982;6.658;2023-07-09T14:54:44;32.10;51.70
58865;DHT22;45702;52.982;6.658;2023-07-09T14:57:19;31.90;52.60
58865;DHT22;45702;52.982;6.658;2023-07-09T14:59:45;31.90;52.90
58865;DHT22;45702;52.982;6.658;2023-07-09T15:04:49;31.70;52.90
58865;DHT22;45702;52.982;6.658;2023-07-09T15:07:15;31.60;53.30
58865;DHT22;45702;52.982;6.658;2023-07-09T15:09:41;31.60;53.80
58865;DHT22;45702;52.982;6.658;2023-07-09T15:12:18;31.50;54.50
58865;DHT22;45702;52.982;6.658;2023-07-09T15:14:44;31.40;54.60
58865;DHT22;45702;52.982;6.658;2023-07-09T15:17:11;31.30;54.80
58865;DHT22;45702;52.982;6.658;2023-07-09T15:19:38;31.20;55.20
58865;DHT22;45702;52.982;6.658;2023-07-09T15:22:04;31.10;56.00
58865;DHT22;45702;52.982;6.658;2023-07-09T15:24:32;31.00;55.80
58865;DHT22;45702;52.982;6.658;2023-07-09T15:27:00;30.70;52.10
58865;DHT22;45702;52.982;6.658;2023-07-09T15:29:27;30.10;49.90
58865;DHT22;45702;52.982;6.658;2023-07-09T15:31:53;29.20;50.70
58865;DHT22;45702;52.982;6.658;2023-07-09T15:34:19;28.60;51.50
58865;DHT22;45702;52.982;6.658;2023-07-09T15:36:47;28.00;51.90
58865;DHT22;45702;52.982;6.658;2023-07-09T15:39:17;27.40;54.90
58865;DHT22;45702;52.982;6.658;2023-07-09T15:41:43;26.50;64.30
58865;DHT22;45702;52.982;6.658;2023-07-09T15:44:16;25.50;75.10
58865;DHT22;45702;52.982;6.658;2023-07-09T15:46:50;24.60;83.00
58865;DHT22;45702;52.982;6.658;2023-07-09T15:49:16;23.80;90.30
58865;DHT22;45702;52.982;6.658;2023-07-09T15:51:42;23.20;94.20
58865;DHT22;45702;52.982;6.658;2023-07-09T15:54:19;22.80;96.20
58865;DHT22;45702;52.982;6.658;2023-07-09T15:56:50;22.30;98.20
58865;DHT22;45702;52.982;6.658;2023-07-09T15:59:25;22.10;99.60
58865;DHT22;45702;52.982;6.658;2023-07-09T16:01:52;21.80;99.90
58865;DHT22;45702;52.982;6.658;2023-07-09T16:04:17;21.60;99.90
58865;DHT22;45702;52.982;6.658;2023-07-09T16:06:43;21.40;99.90
58865;DHT22;45702;52.982;6.658;2023-07-09T16:09:09;21.30;99.90
58865;DHT22;45702;52.982;6.658;2023-07-09T16:11:37;21.10;99.90
58865;DHT22;45702;52.982;6.658;2023-07-09T16:14:25;21.00;99.90
58865;DHT22;45702;52.982;6.658;2023-07-09T16:16:53;21.00;99.90
58865;DHT22;45702;52.982;6.658;2023-07-09T16:19:21;20.90;99.90
58865;DHT22;45702;52.982;6.658;2023-07-09T16:21:50;20.80;99.90
58865;DHT22;45702;52.982;6.658;2023-07-09T16:24:26;20.80;99.90
58865;DHT22;45702;52.982;6.658;2023-07-09T16:26:52;20.80;99.90
58865;DHT22;45702;52.982;6.658;2023-07-09T16:29:30;20.80;99.90